createdAt,value
2018-09-06T00:00:49.842Z,100.00
2018-09-06T00:03:18.450Z,100.00
2018-09-06T00:05:47.057Z,100.00
2018-09-06T00:08:15.663Z,100.00
2018-09-06T00:10:44.288Z,100.00
2018-09-06T00:13:12.984Z,100.00
2018-09-06T00:15:41.610Z,100.00
2018-09-06T00:18:10.207Z,100.00
2018-09-06T00:20:38.911Z,100.00
2018-09-06T00:23:07.664Z,100.00
2018-09-06T00:25:36.851Z,100.00
2018-09-06T00:28:05.555Z,100.00
2018-09-06T00:30:34.180Z,99.92
2018-09-06T00:33:02.765Z,99.80
2018-09-06T00:35:31.315Z,99.83
2018-09-06T00:37:59.961Z,99.82
2018-09-06T00:40:28.532Z,99.99
2018-09-06T00:42:57.086Z,99.86
2018-09-06T00:45:25.611Z,100.00
2018-09-06T00:47:54.282Z,100.00
2018-09-06T00:50:23.177Z,99.58
2018-09-06T00:52:52.937Z,99.35
2018-09-06T00:55:21.910Z,99.72
2018-09-06T00:57:50.447Z,100.00
2018-09-06T01:00:19.973Z,99.76
2018-09-06T01:02:48.524Z,99.59
2018-09-06T01:05:17.803Z,99.85
2018-09-06T01:07:46.413Z,99.25
2018-09-06T01:10:15.576Z,99.39
2018-09-06T01:12:44.101Z,99.80
2018-09-06T01:15:12.727Z,99.76
2018-09-06T01:17:41.247Z,99.59
2018-09-06T01:20:09.787Z,99.18
2018-09-06T01:22:38.408Z,100.00
2018-09-06T01:25:06.955Z,100.00
2018-09-06T01:27:35.524Z,99.59
2018-09-06T01:30:04.086Z,99.53
2018-09-06T01:32:32.729Z,99.49
2018-09-06T01:35:01.350Z,99.28
2018-09-06T01:37:29.898Z,99.70
2018-09-06T01:39:58.471Z,99.58
2018-09-06T01:42:27.069Z,99.25
2018-09-06T01:44:55.653Z,99.25
2018-09-06T01:47:24.214Z,99.48
2018-09-06T01:49:52.810Z,99.23
2018-09-06T01:52:21.416Z,98.81
2018-09-06T01:54:49.909Z,99.58
2018-09-06T01:57:18.476Z,98.97
2018-09-06T01:59:47.128Z,99.38
2018-09-06T02:02:16.870Z,99.37
2018-09-06T02:04:45.391Z,99.41
2018-09-06T02:07:14.014Z,99.05
2018-09-06T02:09:42.565Z,98.67
2018-09-06T02:12:11.131Z,98.86
2018-09-06T02:14:39.632Z,99.07
2018-09-06T02:17:08.231Z,98.65
2018-09-06T02:19:36.846Z,99.40
2018-09-06T02:22:05.551Z,98.63
2018-09-06T02:24:34.195Z,98.78
2018-09-06T02:27:02.736Z,98.68
2018-09-06T02:29:31.329Z,98.55
2018-09-06T02:31:59.923Z,98.56
2018-09-06T02:34:28.557Z,99.17
2018-09-06T02:36:57.155Z,98.65
2018-09-06T02:39:25.723Z,99.09
2018-09-06T02:41:54.306Z,98.47
2018-09-06T02:44:22.871Z,98.88
2018-09-06T02:46:51.442Z,98.45
2018-09-06T02:49:24.127Z,99.03
2018-09-06T02:51:52.741Z,98.38
2018-09-06T02:54:21.322Z,98.78
2018-09-06T02:56:49.864Z,98.49
2018-09-06T02:59:18.511Z,98.89
2018-09-06T03:01:47.047Z,98.66
2018-09-06T03:04:15.719Z,98.99
2018-09-06T03:06:44.218Z,98.94
2018-09-06T03:09:12.766Z,98.72
2018-09-06T03:11:46.602Z,99.43
2018-09-06T03:14:15.188Z,98.55
2018-09-06T03:16:43.715Z,98.92
2018-09-06T03:19:12.279Z,98.98
2018-09-06T03:21:40.788Z,99.18
2018-09-06T03:24:09.291Z,99.13
2018-09-06T03:26:37.842Z,98.45
2018-09-06T03:29:06.391Z,99.13
2018-09-06T03:31:34.909Z,98.51
2018-09-06T03:34:03.408Z,99.17
2018-09-06T03:36:31.944Z,98.22
2018-09-06T03:39:00.442Z,98.71
2018-09-06T03:41:28.969Z,98.72
2018-09-06T03:43:57.512Z,98.89
2018-09-06T03:46:26.043Z,98.60
2018-09-06T03:48:54.650Z,98.30
2018-09-06T03:51:23.171Z,98.38
2018-09-06T03:53:51.728Z,98.40
2018-09-06T03:56:20.261Z,98.46
2018-09-06T03:58:48.875Z,97.86
2018-09-06T04:01:17.755Z,98.14
2018-09-06T04:03:46.962Z,98.52
2018-09-06T04:06:15.831Z,98.25
2018-09-06T04:08:44.423Z,97.98
2018-09-06T04:11:13.162Z,98.37
2018-09-06T04:13:42.105Z,98.04
2018-09-06T04:16:10.722Z,98.03
2018-09-06T04:18:39.348Z,97.62
2018-09-06T04:21:07.863Z,98.17
2018-09-06T04:23:36.662Z,98.75
2018-09-06T04:26:05.326Z,98.62
2018-09-06T04:28:33.925Z,98.43
2018-09-06T04:31:02.577Z,98.13
2018-09-06T04:33:31.198Z,98.20
2018-09-06T04:35:59.804Z,98.28
2018-09-06T04:38:28.443Z,98.34
2018-09-06T04:40:57.078Z,98.28
2018-09-06T04:43:25.660Z,97.69
2018-09-06T04:45:54.219Z,97.99
2018-09-06T04:48:22.884Z,98.22
2018-09-06T04:50:51.604Z,97.50
2018-09-06T04:53:20.243Z,98.28
2018-09-06T04:55:48.866Z,98.05
2018-09-06T04:58:17.520Z,98.17
2018-09-06T05:00:46.142Z,97.39
2018-09-06T05:03:14.703Z,98.11
2018-09-06T05:05:43.742Z,97.61
2018-09-06T05:08:12.595Z,98.02
2018-09-06T05:10:41.208Z,97.84
2018-09-06T05:13:09.935Z,97.69
2018-09-06T05:15:38.602Z,97.59
2018-09-06T05:18:07.626Z,97.67
2018-09-06T05:20:36.488Z,97.83
2018-09-06T05:23:05.441Z,97.30
2018-09-06T05:25:34.344Z,97.51
2018-09-06T05:28:02.984Z,98.12
2018-09-06T05:30:31.616Z,97.50
2018-09-06T05:33:00.252Z,97.57
2018-09-06T05:35:28.894Z,97.72
2018-09-06T05:37:57.475Z,97.83
2018-09-06T05:40:26.012Z,97.90
2018-09-06T05:42:54.588Z,97.90
2018-09-06T05:45:23.144Z,97.45
2018-09-06T05:47:57.687Z,97.41
2018-09-06T05:50:26.927Z,97.72
2018-09-06T05:52:57.286Z,96.96
2018-09-06T05:55:25.899Z,97.83
2018-09-06T05:57:54.469Z,97.10
2018-09-06T06:00:28.198Z,97.56
2018-09-06T06:02:58.668Z,97.59
2018-09-06T06:05:27.310Z,97.56
2018-09-06T06:08:07.364Z,96.92
2018-09-06T06:10:35.947Z,97.11
2018-09-06T06:13:04.517Z,97.15
2018-09-06T06:15:33.053Z,97.45
2018-09-06T06:18:01.678Z,97.36
2018-09-06T06:20:30.252Z,97.65
2018-09-06T06:22:58.820Z,97.21
2018-09-06T06:25:27.411Z,97.30
2018-09-06T06:27:55.944Z,97.20
2018-09-06T06:30:24.527Z,96.97
2018-09-06T06:32:53.123Z,96.89
2018-09-06T06:35:21.707Z,97.54
2018-09-06T06:37:50.350Z,97.54
2018-09-06T06:40:18.905Z,96.92
2018-09-06T06:42:47.502Z,97.24
2018-09-06T06:45:16.066Z,97.51
2018-09-06T06:47:44.695Z,97.22
2018-09-06T06:50:13.385Z,96.83
2018-09-06T06:52:41.913Z,97.49
2018-09-06T06:55:10.855Z,96.82
2018-09-06T06:57:39.434Z,97.29
2018-09-06T07:00:07.999Z,96.65
2018-09-06T07:02:36.588Z,96.50
2018-09-06T07:05:05.163Z,97.23
2018-09-06T07:07:33.678Z,97.30
2018-09-06T07:10:02.299Z,97.30
2018-09-06T07:12:30.882Z,96.86
2018-09-06T07:14:59.407Z,97.21
2018-09-06T07:17:27.961Z,96.73
2018-09-06T07:19:56.524Z,96.91
2018-09-06T07:22:25.059Z,96.66
2018-09-06T07:24:53.569Z,96.73
2018-09-06T07:27:22.136Z,97.26
2018-09-06T07:29:50.738Z,97.12
2018-09-06T07:32:19.321Z,96.81
2018-09-06T07:34:47.887Z,96.70
2018-09-06T07:37:16.394Z,96.90
2018-09-06T07:39:45.068Z,96.99
2018-09-06T07:42:13.614Z,97.01
2018-09-06T07:44:48.874Z,97.06
2018-09-06T07:47:17.428Z,96.55
2018-09-06T07:49:46.088Z,96.53
2018-09-06T07:52:14.677Z,96.71
2018-09-06T07:54:43.273Z,96.72
2018-09-06T07:57:11.963Z,96.97
2018-09-06T07:59:40.534Z,96.34
2018-09-06T08:02:09.119Z,95.91
2018-09-06T08:04:37.662Z,94.83
2018-09-06T08:07:06.397Z,95.06
2018-09-06T08:09:34.887Z,94.76
2018-09-06T08:12:03.466Z,93.88
2018-09-06T08:14:31.935Z,94.53
2018-09-06T08:17:00.639Z,94.81
2018-09-06T08:19:29.140Z,95.01
2018-09-06T08:21:57.649Z,95.03
2018-09-06T08:24:26.986Z,94.67
2018-09-06T08:26:55.223Z,94.62
2018-09-06T08:29:23.715Z,96.08
2018-09-06T08:31:52.236Z,95.78
2018-09-06T08:34:20.954Z,96.66
2018-09-06T08:36:49.490Z,96.46
2018-09-06T08:39:18.010Z,94.78
2018-09-06T08:41:46.499Z,94.07
2018-09-06T08:44:14.986Z,93.92
2018-09-06T08:46:43.464Z,93.65
2018-09-06T08:49:11.956Z,93.72
2018-09-06T08:51:40.447Z,94.08
2018-09-06T08:54:09.051Z,94.09
2018-09-06T08:56:37.560Z,94.20
2018-09-06T08:59:06.120Z,94.69
2018-09-06T09:01:39.727Z,94.82
2018-09-06T09:04:08.568Z,94.34
2018-09-06T09:06:37.455Z,94.91
2018-09-06T09:09:10.072Z,95.45
2018-09-06T09:11:38.596Z,96.29
2018-09-06T09:14:07.098Z,96.71
2018-09-06T09:16:35.711Z,96.59
2018-09-06T09:19:04.252Z,96.61
2018-09-06T09:21:32.866Z,97.23
2018-09-06T09:24:01.413Z,98.15
2018-09-06T09:26:29.936Z,98.17
2018-09-06T09:28:58.475Z,98.98
2018-09-06T09:31:26.975Z,99.52
2018-09-06T09:33:55.564Z,100.00
2018-09-06T09:36:24.081Z,100.00
2018-09-06T09:38:52.575Z,99.91
2018-09-06T09:41:21.188Z,100.00
2018-09-06T09:43:49.689Z,100.00
2018-09-06T09:48:45.856Z,100.00
2018-09-06T09:51:14.389Z,100.00
2018-09-06T09:53:42.904Z,100.00
2018-09-06T09:56:11.420Z,100.00
2018-09-06T09:58:39.924Z,100.00
2018-09-06T10:01:08.439Z,100.00
2018-09-06T10:03:42.185Z,100.00
2018-09-06T10:06:15.998Z,100.00
2018-09-06T10:08:49.658Z,100.00
2018-09-06T10:11:18.163Z,100.00
2018-09-06T10:13:46.678Z,100.00
2018-09-06T10:16:15.238Z,100.00
2018-09-06T10:18:43.836Z,100.00
2018-09-06T10:21:12.363Z,100.00
2018-09-06T10:23:40.912Z,100.00
2018-09-06T10:26:09.428Z,100.00
2018-09-06T10:28:37.930Z,100.00
2018-09-06T10:31:06.459Z,100.00
2018-09-06T10:33:34.974Z,100.00
2018-09-06T10:36:03.469Z,100.00
2018-09-06T10:38:31.981Z,99.63
2018-09-06T10:41:00.484Z,99.33
2018-09-06T10:43:28.998Z,99.09
2018-09-06T10:45:57.478Z,98.85
2018-09-06T10:48:25.964Z,98.44
2018-09-06T10:50:54.462Z,98.60
2018-09-06T10:53:22.987Z,98.65
2018-09-06T10:55:51.552Z,97.80
2018-09-06T10:58:20.124Z,98.02
2018-09-06T11:00:48.834Z,98.60
2018-09-06T11:03:17.438Z,98.17
2018-09-06T11:05:46.186Z,97.60
2018-09-06T11:08:14.722Z,97.49
2018-09-06T11:10:43.220Z,97.25
2018-09-06T11:13:11.818Z,97.63
2018-09-06T11:15:40.319Z,97.81
2018-09-06T11:18:08.836Z,97.32
2018-09-06T11:20:37.315Z,97.01
2018-09-06T11:23:05.827Z,97.77
2018-09-06T11:25:34.324Z,97.20
2018-09-06T11:28:02.850Z,97.44
2018-09-06T11:30:31.364Z,97.52
2018-09-06T11:32:59.872Z,97.22
2018-09-06T11:35:28.370Z,97.42
2018-09-06T11:37:56.893Z,97.71
2018-09-06T11:40:25.452Z,97.42
2018-09-06T11:42:53.901Z,97.23
2018-09-06T11:45:22.479Z,97.67
2018-09-06T11:47:51.039Z,97.31
2018-09-06T11:50:19.581Z,97.07
2018-09-06T11:52:48.070Z,97.43
2018-09-06T11:55:16.571Z,97.15
2018-09-06T11:57:45.061Z,97.59
2018-09-06T12:00:14.074Z,97.42
2018-09-06T12:02:42.568Z,97.53
2018-09-06T12:05:11.068Z,97.10
2018-09-06T12:07:39.568Z,97.23
2018-09-06T12:10:08.087Z,96.72
2018-09-06T12:12:36.618Z,96.83
2018-09-06T12:15:05.104Z,96.69
2018-09-06T12:17:33.581Z,96.50
2018-09-06T12:20:02.100Z,96.31
2018-09-06T12:22:30.587Z,96.64
2018-09-06T12:24:59.168Z,96.58
2018-09-06T12:27:27.665Z,96.83
2018-09-06T12:29:56.237Z,96.91
2018-09-06T12:32:24.732Z,96.78
2018-09-06T12:34:53.235Z,96.82
2018-09-06T12:37:21.725Z,96.15
2018-09-06T12:39:50.239Z,96.18
2018-09-06T12:42:18.863Z,96.62
2018-09-06T12:44:47.365Z,96.28
2018-09-06T12:47:15.866Z,96.23
2018-09-06T12:49:44.465Z,96.79
2018-09-06T12:52:12.930Z,96.24
2018-09-06T12:54:41.414Z,96.84
2018-09-06T12:57:09.904Z,96.09
2018-09-06T12:59:38.444Z,95.72
2018-09-06T13:02:06.940Z,94.70
2018-09-06T13:04:35.437Z,95.93
2018-09-06T13:07:03.918Z,95.60
2018-09-06T13:09:32.403Z,95.76
2018-09-06T13:12:01.096Z,95.88
2018-09-06T13:14:29.564Z,95.19
2018-09-06T13:16:58.129Z,95.14
2018-09-06T13:19:26.604Z,95.71
2018-09-06T13:21:55.123Z,95.52
2018-09-06T13:24:23.645Z,95.10
2018-09-06T13:26:52.134Z,95.43
2018-09-06T13:29:20.618Z,95.66
2018-09-06T13:31:49.111Z,95.57
2018-09-06T13:34:17.615Z,95.21
2018-09-06T13:36:46.132Z,95.00
2018-09-06T13:39:14.628Z,95.43
2018-09-06T13:41:43.140Z,95.09
2018-09-06T13:44:11.643Z,95.46
2018-09-06T13:46:40.113Z,95.30
2018-09-06T13:49:08.602Z,94.95
2018-09-06T13:51:37.791Z,95.17
2018-09-06T13:54:06.552Z,95.67
2018-09-06T13:56:35.171Z,95.03
2018-09-06T13:59:03.981Z,94.82
2018-09-06T14:01:32.690Z,95.30
2018-09-06T14:04:01.289Z,94.97
2018-09-06T14:06:30.030Z,95.37
2018-09-06T14:08:58.768Z,94.88
2018-09-06T14:11:27.250Z,95.50
2018-09-06T14:13:55.723Z,95.46
2018-09-06T14:16:24.263Z,94.92
2018-09-06T14:18:53.008Z,95.04
2018-09-06T14:21:21.676Z,94.85
2018-09-06T14:23:50.251Z,94.98
2018-09-06T14:26:19.034Z,94.81
2018-09-06T14:28:47.512Z,94.77
2018-09-06T14:31:16.204Z,95.20
2018-09-06T14:33:44.788Z,94.50
2018-09-06T14:36:13.276Z,94.92
2018-09-06T14:38:41.825Z,94.53
2018-09-06T14:41:10.388Z,95.21
2018-09-06T14:43:38.890Z,94.99
2018-09-06T14:46:07.394Z,95.23
2018-09-06T14:48:35.885Z,95.08
2018-09-06T14:51:04.381Z,94.60
2018-09-06T14:53:32.886Z,94.65
2018-09-06T14:56:01.397Z,95.22
2018-09-06T14:58:29.896Z,95.03
2018-09-06T15:00:58.365Z,94.26
2018-09-06T15:03:26.843Z,94.52
2018-09-06T15:05:55.318Z,94.43
2018-09-06T15:08:23.928Z,94.75
2018-09-06T15:10:52.555Z,94.37
2018-09-06T15:13:21.221Z,94.18
2018-09-06T15:15:49.802Z,94.20
2018-09-06T15:18:18.368Z,94.18
2018-09-06T15:20:46.905Z,94.50
2018-09-06T15:23:15.456Z,92.49
2018-09-06T15:25:44.018Z,93.87
2018-09-06T15:28:12.637Z,92.74
2018-09-06T15:30:41.171Z,93.12
2018-09-06T15:33:09.708Z,92.90
2018-09-06T15:35:38.443Z,92.62
2018-09-06T15:38:08.005Z,93.26
2018-09-06T15:40:36.567Z,92.79
2018-09-06T15:43:05.803Z,92.13
2018-09-06T15:45:34.319Z,92.02
2018-09-06T15:48:02.819Z,92.77
2018-09-06T15:50:31.551Z,92.97
2018-09-06T15:53:00.163Z,92.85
2018-09-06T15:55:28.755Z,92.05
2018-09-06T15:57:58.517Z,92.83
2018-09-06T16:00:27.071Z,93.32
2018-09-06T16:02:55.755Z,94.43
2018-09-06T16:05:24.630Z,94.02
2018-09-06T16:07:53.300Z,94.41
2018-09-06T16:10:21.816Z,94.56
2018-09-06T16:12:50.340Z,94.87
2018-09-06T16:15:19.308Z,94.37
2018-09-06T16:17:47.798Z,94.77
2018-09-06T16:20:16.443Z,93.75
2018-09-06T16:22:45.830Z,94.83
2018-09-06T16:25:14.380Z,94.57
2018-09-06T16:27:43.588Z,94.73
2018-09-06T16:30:12.340Z,94.17
2018-09-06T16:32:40.898Z,94.94
2018-09-06T16:35:09.545Z,93.92
2018-09-06T16:37:38.165Z,93.92
2018-09-06T16:40:06.766Z,93.80
2018-09-06T16:42:35.498Z,95.19
2018-09-06T16:45:04.331Z,96.33
2018-09-06T16:47:32.893Z,95.50
2018-09-06T16:50:01.469Z,96.88
2018-09-06T16:52:30.105Z,98.72
2018-09-06T16:54:58.726Z,98.92
2018-09-06T16:57:27.224Z,97.33
2018-09-06T16:59:55.721Z,95.93
2018-09-06T17:02:24.264Z,95.62
2018-09-06T17:04:52.839Z,97.38
2018-09-06T17:07:21.386Z,96.28
2018-09-06T17:09:49.948Z,95.74
2018-09-06T17:12:18.424Z,95.56
2018-09-06T17:14:46.971Z,95.53
2018-09-06T17:17:15.447Z,95.27
2018-09-06T17:19:43.934Z,97.78
2018-09-06T17:22:12.411Z,96.92
2018-09-06T17:24:40.919Z,96.17
2018-09-06T17:27:09.412Z,96.38
2018-09-06T17:29:37.899Z,95.84
2018-09-06T17:32:06.488Z,96.41
2018-09-06T17:34:34.988Z,95.53
2018-09-06T17:37:03.538Z,96.21
2018-09-06T17:39:32.111Z,95.82
2018-09-06T17:42:00.612Z,96.33
2018-09-06T17:44:29.095Z,95.83
2018-09-06T17:46:57.581Z,98.51
2018-09-06T17:49:26.110Z,100.00
2018-09-06T17:51:54.610Z,98.66
2018-09-06T17:54:23.154Z,99.10
2018-09-06T17:56:51.627Z,99.62
2018-09-06T17:59:20.132Z,99.20
2018-09-06T18:01:48.628Z,98.69
2018-09-06T18:04:17.115Z,99.12
2018-09-06T18:06:45.607Z,99.33
2018-09-06T18:09:14.758Z,99.18
2018-09-06T18:11:43.821Z,99.30
2018-09-06T18:14:12.330Z,99.20
2018-09-06T18:16:41.192Z,100.00
2018-09-06T18:19:09.674Z,98.66
2018-09-06T18:21:38.171Z,99.59
2018-09-06T18:24:06.688Z,100.00
2018-09-06T18:26:35.186Z,98.95
2018-09-06T18:29:03.677Z,100.00
2018-09-06T18:31:32.181Z,99.67
2018-09-06T18:34:00.716Z,100.00
2018-09-06T18:36:29.259Z,99.95
2018-09-06T18:38:57.826Z,98.63
2018-09-06T18:41:26.334Z,99.56
2018-09-06T18:43:54.890Z,99.92
2018-09-06T18:46:23.366Z,99.97
2018-09-06T18:48:51.851Z,100.00
2018-09-06T18:51:20.349Z,100.00
2018-09-06T18:53:48.835Z,99.72
2018-09-06T18:56:17.320Z,99.71
2018-09-06T18:58:45.810Z,100.00
2018-09-06T19:01:14.349Z,100.00
2018-09-06T19:03:42.880Z,100.00
2018-09-06T19:06:11.439Z,100.00
2018-09-06T19:08:39.941Z,100.00
2018-09-06T19:11:08.578Z,100.00
2018-09-06T19:13:37.337Z,99.04
2018-09-06T19:16:06.003Z,100.00
2018-09-06T19:18:34.710Z,100.00
2018-09-06T19:21:03.284Z,100.00
2018-09-06T19:23:31.891Z,100.00
2018-09-06T19:26:00.528Z,100.00
2018-09-06T19:28:29.195Z,100.00
2018-09-06T19:30:57.801Z,100.00
2018-09-06T19:33:26.409Z,100.00
2018-09-06T19:35:55.018Z,100.00
2018-09-06T19:38:23.580Z,100.00
2018-09-06T19:40:52.283Z,100.00
2018-09-06T19:43:20.936Z,100.00
2018-09-06T19:45:49.593Z,100.00
2018-09-06T19:48:18.139Z,100.00
2018-09-06T19:50:46.723Z,100.00
2018-09-06T19:53:15.279Z,100.00
2018-09-06T19:55:44.232Z,100.00
2018-09-06T19:58:12.851Z,99.05
2018-09-06T20:00:41.393Z,99.61
2018-09-06T20:03:10.025Z,98.85
2018-09-06T20:05:38.620Z,99.24
2018-09-06T20:08:07.351Z,99.36
2018-09-06T20:10:35.812Z,99.16
2018-09-06T20:13:04.408Z,99.11
2018-09-06T20:15:32.994Z,98.55
2018-09-06T20:18:01.647Z,98.41
2018-09-06T20:20:30.215Z,98.85
2018-09-06T20:22:58.796Z,99.17
2018-09-06T20:25:27.313Z,99.36
2018-09-06T20:27:55.899Z,99.18
2018-09-06T20:30:24.451Z,99.00
2018-09-06T20:32:52.983Z,98.78
2018-09-06T20:35:22.426Z,98.87
2018-09-06T20:37:50.938Z,98.92
2018-09-06T20:40:19.445Z,99.20
2018-09-06T20:42:48.022Z,98.75
2018-09-06T20:45:17.398Z,99.03
2018-09-06T20:47:45.931Z,98.55
2018-09-06T20:50:14.435Z,98.56
2018-09-06T20:52:42.957Z,99.31
2018-09-06T20:55:11.500Z,99.39
2018-09-06T20:57:40.066Z,98.99
2018-09-06T21:00:08.663Z,99.10
2018-09-06T21:02:37.250Z,98.93
2018-09-06T21:05:06.152Z,98.79
2018-09-06T21:07:34.718Z,98.73
2018-09-06T21:10:03.478Z,98.64
2018-09-06T21:12:32.065Z,99.31
2018-09-06T21:15:00.891Z,98.94
2018-09-06T21:17:29.380Z,98.82
2018-09-06T21:19:57.918Z,99.20
2018-09-06T21:22:26.564Z,99.19
2018-09-06T21:24:55.135Z,99.28
2018-09-06T21:27:23.699Z,98.95
2018-09-06T21:29:52.310Z,99.08
2018-09-06T21:32:20.895Z,99.00
2018-09-06T21:34:49.494Z,98.67
2018-09-06T21:37:18.067Z,99.08
2018-09-06T21:39:46.721Z,99.20
2018-09-06T21:42:15.233Z,99.22
2018-09-06T21:44:43.845Z,99.03
2018-09-06T21:47:12.398Z,99.08
2018-09-06T21:49:41.072Z,98.44
2018-09-06T21:52:09.643Z,98.53
2018-09-06T21:54:38.154Z,98.74
2018-09-06T21:57:06.691Z,98.70
2018-09-06T21:59:35.281Z,98.71
2018-09-06T22:02:03.791Z,98.80
2018-09-06T22:04:32.333Z,98.91
2018-09-06T22:07:00.891Z,99.23
2018-09-06T22:09:29.463Z,98.69
2018-09-06T22:11:58.033Z,99.22
2018-09-06T22:14:26.551Z,98.65
2018-09-06T22:16:55.123Z,99.08
2018-09-06T22:19:23.686Z,98.29
2018-09-06T22:21:52.249Z,99.00
2018-09-06T22:24:20.754Z,99.20
2018-09-06T22:26:49.303Z,98.93
2018-09-06T22:29:17.860Z,99.01
2018-09-06T22:31:46.369Z,98.29
2018-09-06T22:34:14.858Z,98.83
2018-09-06T22:36:43.463Z,98.77
2018-09-06T22:39:12.019Z,99.04
2018-09-06T22:41:40.539Z,99.04
2018-09-06T22:44:09.096Z,98.95
2018-09-06T22:46:37.637Z,98.62
2018-09-06T22:49:06.324Z,98.82
2018-09-06T22:51:34.838Z,98.54
2018-09-06T22:54:03.351Z,98.55
2018-09-06T22:56:31.895Z,98.98
2018-09-06T22:59:00.422Z,98.98
2018-09-06T23:01:28.951Z,98.31
2018-09-06T23:03:57.468Z,98.81
2018-09-06T23:06:26.026Z,99.12
2018-09-06T23:08:54.569Z,98.85
2018-09-06T23:11:23.240Z,98.86
2018-09-06T23:13:51.741Z,98.67
2018-09-06T23:16:20.242Z,98.92
2018-09-06T23:18:48.873Z,98.50
2018-09-06T23:21:17.430Z,98.87
2018-09-06T23:23:45.937Z,98.66
2018-09-06T23:26:14.452Z,98.95
2018-09-06T23:28:42.996Z,98.98
2018-09-06T23:31:11.539Z,98.74
2018-09-06T23:33:40.063Z,98.32
2018-09-06T23:36:08.594Z,98.25
2018-09-06T23:38:37.132Z,98.54
2018-09-06T23:41:05.771Z,98.57
2018-09-06T23:43:34.349Z,98.28
2018-09-06T23:46:02.973Z,98.46
2018-09-06T23:48:31.526Z,98.24
2018-09-06T23:51:00.084Z,98.56
2018-09-06T23:53:29.190Z,98.83
2018-09-06T23:55:57.689Z,98.40
2018-09-06T23:58:26.454Z,98.66
